Time;durP1;ratioP1;P1;durP2;ratioP2;P2;SDS_P1;SDS_P2;PMS_P1;PMS_P2;Temp;Humidity;BMP_temperature;BMP_pressure;BME280_temperature;BME280_humidity;BME280_pressure;Samples;Min_cycle;Max_cycle;Signal;HPM_P1;HPM_P2
2022/10/18 00:01:50;;;;;;;74.17;15.70;;;16.70;99.90;;;;;;5098088;28;20163;-87
2022/10/18 00:04:19;;;;;;;72.10;14.40;;;16.70;99.90;;;;;;5116361;28;20602;-86
2022/10/18 00:06:45;;;;;;;75.93;17.40;;;16.70;99.90;;;;;;5098107;28;20174;-86
2022/10/18 00:09:11;;;;;;;73.93;14.70;;;16.60;99.90;;;;;;5116337;28;20472;-87
2022/10/18 00:11:36;;;;;;;77.37;16.30;;;16.60;99.90;;;;;;5117489;28;20491;-86
2022/10/18 00:14:02;;;;;;;77.13;14.83;;;16.70;99.90;;;;;;5117374;28;20358;-86
2022/10/18 00:16:28;;;;;;;77.73;14.70;;;16.70;99.90;;;;;;5099309;28;20162;-86
2022/10/18 00:18:53;;;;;;;73.77;14.30;;;16.70;99.90;;;;;;5100131;28;20210;-86
2022/10/18 00:21:22;;;;;;;73.13;13.73;;;16.60;99.90;;;;;;5117417;28;20159;-86
2022/10/18 00:23:49;;;;;;;75.97;13.67;;;16.70;99.90;;;;;;5116251;28;20238;-86
2022/10/18 00:26:19;;;;;;;72.20;12.23;;;16.60;99.90;;;;;;5116400;28;20401;-86
2022/10/18 00:28:45;;;;;;;70.57;12.10;;;16.70;99.90;;;;;;5115684;28;20458;-87
2022/10/18 00:31:21;;;;;;;75.50;16.57;;;16.60;99.90;;;;;;5115794;28;20896;-87
2022/10/18 00:34:15;;;;;;;72.80;15.50;;;16.50;99.90;;;;;;5097390;28;20450;-87
2022/10/18 00:36:56;;;;;;;82.40;15.03;;;16.50;99.90;;;;;;5097460;28;20464;-87
2022/10/18 00:42:59;;;;;;;74.27;13.60;;;16.50;99.90;;;;;;5104499;28;20910;-87
2022/10/18 00:45:30;;;;;;;74.20;14.07;;;16.50;99.90;;;;;;5092805;28;20432;-87
2022/10/18 00:48:43;;;;;;;80.60;16.07;;;16.50;99.90;;;;;;5115139;28;20914;-87
2022/10/18 00:55:34;;;;;;;;;;;;;;;;;;;;;
2022/10/18 00:58:45;;;;;;;83.00;17.63;;;16.40;99.90;;;;;;5039320;28;20398;-87
2022/10/18 01:01:55;;;;;;;72.97;15.57;;;16.50;99.90;;;;;;5054523;28;20406;-87
2022/10/18 01:04:56;;;;;;;74.30;14.37;;;16.50;99.90;;;;;;5016140;28;20482;-87
2022/10/18 01:08:01;;;;;;;73.70;16.70;;;16.50;99.90;;;;;;5016612;28;20412;-86
2022/10/18 01:10:56;;;;;;;74.57;12.83;;;16.50;99.90;;;;;;5055736;28;20502;-87
2022/10/18 01:14:15;;;;;;;72.07;12.77;;;16.50;99.90;;;;;;5115024;28;20464;-87
2022/10/18 01:17:06;;;;;;;72.90;13.83;;;16.50;99.90;;;;;;5080381;28;20420;-87
2022/10/18 01:19:58;;;;;;;74.17;13.40;;;16.60;99.90;;;;;;5115137;28;20438;-87
2022/10/18 01:22:38;;;;;;;73.07;16.77;;;16.60;99.90;;;;;;5115105;28;20798;-87
2022/10/18 01:25:39;;;;;;;84.13;27.87;;;16.50;99.90;;;;;;5097599;28;20412;-87
2022/10/18 01:29:07;;;;;;;80.00;30.10;;;16.50;99.90;;;;;;5096878;28;20391;-87
2022/10/18 01:31:57;;;;;;;77.50;19.33;;;16.50;99.90;;;;;;5072026;28;20394;-87
2022/10/18 01:34:45;;;;;;;81.97;22.33;;;16.50;99.90;;;;;;5055154;28;20418;-87
2022/10/18 01:37:23;;;;;;;77.87;24.20;;;16.50;99.90;;;;;;5072168;28;20500;-87
2022/10/18 01:39:59;;;;;;;85.53;32.30;;;16.40;99.90;;;;;;5055247;28;20436;-87
2022/10/18 01:43:37;;;;;;;;;;;;;;;;;;;;;
2022/10/18 01:46:08;;;;;;;79.70;26.23;;;16.30;99.90;;;;;;5070780;28;20952;-87
2022/10/18 01:48:39;;;;;;;83.67;26.57;;;16.40;99.90;;;;;;5054743;28;20863;-87
2022/10/18 01:51:28;;;;;;;78.97;21.50;;;16.40;99.90;;;;;;5085282;28;20411;-87
2022/10/18 01:53:56;;;;;;;81.07;25.07;;;16.50;99.90;;;;;;5114444;28;20827;-87
2022/10/18 01:56:40;;;;;;;86.90;27.93;;;16.50;99.90;;;;;;5095859;28;20442;-87
2022/10/18 01:59:43;;;;;;;79.10;26.40;;;16.50;99.90;;;;;;5095964;28;20416;-86
2022/10/18 02:03:00;;;;;;;82.47;22.33;;;16.50;99.90;;;;;;5096113;28;20400;-86
2022/10/18 02:05:58;;;;;;;84.60;25.80;;;16.50;99.90;;;;;;5093188;28;20909;-87
2022/10/18 02:08:51;;;;;;;82.07;25.73;;;16.50;99.90;;;;;;5096383;28;20500;-86
2022/10/18 02:11:29;;;;;;;83.67;27.80;;;16.40;99.90;;;;;;5114022;28;20396;-86
2022/10/18 02:14:42;;;;;;;89.23;24.83;;;16.40;99.90;;;;;;5114428;28;20822;-86
2022/10/18 02:17:11;;;;;;;83.07;25.37;;;16.40;99.90;;;;;;5071399;28;20402;-86
2022/10/18 02:19:42;;;;;;;82.70;25.30;;;16.40;99.90;;;;;;5093319;28;20435;-86
2022/10/18 02:22:13;;;;;;;84.40;26.27;;;16.40;99.90;;;;;;5113941;28;20790;-86
2022/10/18 02:24:47;;;;;;;85.50;24.97;;;16.40;99.90;;;;;;5096558;28;20731;-86
2022/10/18 02:27:13;;;;;;;86.63;28.90;;;16.50;99.90;;;;;;5095679;28;20408;-86
2022/10/18 02:29:40;;;;;;;89.17;25.77;;;16.50;99.90;;;;;;5095519;28;20462;-86
2022/10/18 02:32:39;;;;;;;85.40;24.80;;;16.50;99.90;;;;;;5113835;28;20405;-86
2022/10/18 02:35:19;;;;;;;87.07;22.00;;;16.50;99.90;;;;;;5081846;28;20427;-87
2022/10/18 02:38:11;;;;;;;84.00;21.47;;;16.50;99.90;;;;;;5113932;28;20457;-87
2022/10/18 02:43:54;;;;;;;80.87;21.40;;;16.50;99.90;;;;;;5096365;28;20411;-86
2022/10/18 02:46:50;;;;;;;78.80;18.23;;;16.50;99.90;;;;;;5113779;28;20402;-86
2022/10/18 02:49:57;;;;;;;83.13;20.07;;;16.50;99.90;;;;;;5113540;28;20420;-87
2022/10/18 02:52:48;;;;;;;84.27;20.57;;;16.60;99.90;;;;;;5094869;28;20440;-87
2022/10/18 02:55:22;;;;;;;77.67;18.53;;;16.50;99.90;;;;;;5096110;28;20906;-87
2022/10/18 02:57:48;;;;;;;84.53;21.07;;;16.60;99.90;;;;;;5094335;28;20439;-87
2022/10/18 03:00:20;;;;;;;78.83;20.47;;;16.50;99.90;;;;;;5095599;28;20917;-87
2022/10/18 03:02:52;;;;;;;79.77;17.57;;;16.50;99.90;;;;;;5098792;28;20410;-87
2022/10/18 03:08:52;;;;;;;81.47;19.87;;;16.40;99.90;;;;;;5055237;28;20423;-86
2022/10/18 03:12:15;;;;;;;82.17;19.00;;;16.40;99.90;;;;;;5038237;28;20421;-86
2022/10/18 03:15:15;;;;;;;82.47;18.70;;;16.50;99.90;;;;;;5053828;28;20983;-87
2022/10/18 03:17:47;;;;;;;87.30;21.47;;;16.40;99.90;;;;;;5038479;28;20988;-87
2022/10/18 03:20:34;;;;;;;81.27;19.87;;;16.50;99.90;;;;;;5111417;28;20565;-87
2022/10/18 03:23:46;;;;;;;81.23;21.40;;;16.50;99.90;;;;;;5110367;28;20410;-87
2022/10/18 03:26:26;;;;;;;;;;;;;;;;;;;;;
2022/10/18 03:32:13;;;;;;;82.73;20.53;;;16.40;99.90;;;;;;5097534;28;20390;-86
2022/10/18 03:35:21;;;;;;;80.40;22.70;;;16.40;99.90;;;;;;5078444;28;20506;-87
2022/10/18 03:38:09;;;;;;;80.80;21.13;;;16.30;99.90;;;;;;5077228;28;20920;-87
2022/10/18 03:41:06;;;;;;;80.57;21.10;;;16.30;99.90;;;;;;5080358;28;20829;-87
2022/10/18 03:47:12;;;;;;;80.70;21.40;;;16.30;99.90;;;;;;5055576;28;20411;-87
2022/10/18 03:50:24;;;;;;;83.60;21.80;;;16.30;99.90;;;;;;5079533;28;20443;-86
2022/10/18 03:53:04;;;;;;;85.00;23.37;;;16.30;99.90;;;;;;5075149;28;20450;-86
2022/10/18 03:55:43;;;;;;;81.50;22.03;;;16.30;99.90;;;;;;5079855;28;20429;-87
2022/10/18 03:58:35;;;;;;;81.80;21.57;;;16.30;99.90;;;;;;5098145;28;20477;-86
2022/10/18 04:01:33;;;;;;;83.87;24.70;;;16.30;99.90;;;;;;5079035;28;20404;-86
2022/10/18 04:04:02;;;;;;;82.60;21.10;;;16.30;99.90;;;;;;5079902;28;20405;-86
2022/10/18 04:06:36;;;;;;;80.10;19.60;;;16.30;99.90;;;;;;5079060;28;20936;-86
2022/10/18 04:09:11;;;;;;;78.30;19.10;;;16.30;99.90;;;;;;5079623;28;20432;-86
2022/10/18 04:11:46;;;;;;;83.97;23.53;;;16.20;99.90;;;;;;5078164;28;20410;-86
2022/10/18 04:14:12;;;;;;;80.27;22.13;;;16.20;99.90;;;;;;5077823;28;20908;-86
2022/10/18 04:16:48;;;;;;;80.80;21.33;;;16.20;99.90;;;;;;5096333;28;20407;-86
2022/10/18 04:19:14;;;;;;;84.60;19.60;;;16.30;99.90;;;;;;5077434;28;20217;-86
2022/10/18 04:21:40;;;;;;;77.90;18.80;;;16.30;99.90;;;;;;5095847;28;20446;-86
2022/10/18 04:24:09;;;;;;;79.10;20.77;;;16.30;99.90;;;;;;5095734;28;20894;-86
2022/10/18 04:26:38;;;;;;;78.17;17.90;;;16.30;99.90;;;;;;5095579;28;20771;-86
2022/10/18 04:29:03;;;;;;;77.30;19.57;;;16.30;99.90;;;;;;5077571;28;20491;-87
2022/10/18 04:31:29;;;;;;;80.60;18.97;;;16.20;99.90;;;;;;5096122;28;20875;-87
2022/10/18 04:33:55;;;;;;;81.53;19.93;;;16.20;99.90;;;;;;5095420;28;20530;-87
2022/10/18 04:36:21;;;;;;;80.40;21.80;;;16.10;99.90;;;;;;5077870;28;20299;-86
2022/10/18 04:38:46;;;;;;;81.50;22.37;;;16.10;99.90;;;;;;5078603;28;20679;-87
2022/10/18 04:41:12;;;;;;;81.40;20.83;;;16.20;99.90;;;;;;5077558;28;20171;-87
2022/10/18 04:43:38;;;;;;;80.47;20.00;;;16.20;99.90;;;;;;5095879;28;20212;-87
2022/10/18 04:46:04;;;;;;;84.20;19.83;;;16.20;99.90;;;;;;5095467;28;20197;-87
2022/10/18 04:48:55;;;;;;;83.37;20.37;;;16.20;99.90;;;;;;5077045;28;20443;-87
2022/10/18 04:51:21;;;;;;;80.60;21.20;;;16.30;99.90;;;;;;5094459;28;20412;-87
2022/10/18 04:53:58;;;;;;;80.87;21.70;;;16.30;99.90;;;;;;5077000;28;20449;-87
2022/10/18 04:56:24;;;;;;;82.47;20.87;;;16.30;99.90;;;;;;5095176;28;20382;-87
2022/10/18 04:58:50;;;;;;;84.67;21.57;;;16.30;99.90;;;;;;5077092;28;20423;-87
2022/10/18 05:01:17;;;;;;;86.73;20.90;;;16.30;99.90;;;;;;5094854;28;20400;-87
2022/10/18 05:03:56;;;;;;;85.77;22.53;;;16.30;99.90;;;;;;5076960;28;20441;-87
2022/10/18 05:06:22;;;;;;;84.93;20.53;;;16.30;99.90;;;;;;5076969;28;20874;-87
2022/10/18 05:08:48;;;;;;;86.53;23.77;;;16.30;99.90;;;;;;5076541;28;20490;-87
2022/10/18 05:11:19;;;;;;;89.80;22.30;;;16.30;99.90;;;;;;5076748;28;20797;-87
2022/10/18 05:13:45;;;;;;;85.27;22.60;;;16.30;99.90;;;;;;5145782;22;20447;-86
2022/10/18 05:16:11;;;;;;;86.97;25.73;;;16.30;99.90;;;;;;5118940;28;20434;-85
2022/10/18 05:18:36;;;;;;;84.20;23.90;;;16.30;99.90;;;;;;5119553;28;20204;-86
2022/10/18 05:21:02;;;;;;;83.57;23.63;;;16.30;99.90;;;;;;5119400;28;20166;-86
2022/10/18 05:23:28;;;;;;;90.53;24.40;;;16.30;99.90;;;;;;5120184;28;20170;-86
2022/10/18 05:25:53;;;;;;;85.00;24.10;;;16.30;99.90;;;;;;5101263;28;20623;-85
2022/10/18 05:28:19;;;;;;;88.30;25.67;;;16.30;99.90;;;;;;5120272;28;20245;-86
2022/10/18 05:30:45;;;;;;;83.40;25.90;;;16.30;99.90;;;;;;5102253;28;20219;-86
2022/10/18 05:33:10;;;;;;;86.00;23.83;;;16.30;99.90;;;;;;5121191;28;20559;-86
2022/10/18 05:35:36;;;;;;;84.83;25.67;;;16.30;99.90;;;;;;5120693;28;20171;-86
2022/10/18 05:38:05;;;;;;;87.40;24.93;;;16.30;99.90;;;;;;5120521;28;20194;-85
2022/10/18 05:40:32;;;;;;;88.83;24.90;;;16.30;99.90;;;;;;5103015;28;20416;-85
2022/10/18 05:42:57;;;;;;;89.10;27.07;;;16.30;99.90;;;;;;5119438;28;20791;-86
2022/10/18 05:45:23;;;;;;;87.20;24.43;;;16.30;99.90;;;;;;5119491;28;20413;-85
2022/10/18 05:47:49;;;;;;;85.37;23.97;;;16.30;99.90;;;;;;5120016;28;20174;-86
2022/10/18 05:50:14;;;;;;;84.97;23.67;;;16.30;99.90;;;;;;5119266;28;20176;-86
2022/10/18 05:52:40;;;;;;;83.77;22.60;;;16.30;99.90;;;;;;5118992;28;20186;-86
2022/10/18 05:55:06;;;;;;;87.67;27.60;;;16.30;99.90;;;;;;5118737;28;20205;-86
2022/10/18 05:57:32;;;;;;;85.50;25.93;;;16.30;99.90;;;;;;5100660;28;20522;-86
2022/10/18 05:59:58;;;;;;;87.33;25.23;;;16.30;99.90;;;;;;5118256;28;20427;-85
2022/10/18 06:02:23;;;;;;;93.07;25.73;;;16.30;99.90;;;;;;5100221;28;20166;-86
2022/10/18 06:04:49;;;;;;;89.77;25.87;;;16.30;99.90;;;;;;5101271;28;20303;-87
2022/10/18 06:07:16;;;;;;;92.57;28.80;;;16.30;99.90;;;;;;5118180;28;20157;-86
2022/10/18 06:09:42;;;;;;;87.10;25.93;;;16.30;99.90;;;;;;5118329;28;20665;-86
2022/10/18 06:12:08;;;;;;;84.40;26.60;;;16.30;99.90;;;;;;5117909;28;20449;-86
2022/10/18 06:14:35;;;;;;;88.73;25.03;;;16.20;99.90;;;;;;5099951;28;20653;-86
2022/10/18 06:17:01;;;;;;;85.17;25.67;;;16.30;99.90;;;;;;5118278;28;20488;-85
2022/10/18 06:19:26;;;;;;;89.80;24.40;;;16.30;99.90;;;;;;5099590;28;20443;-85
2022/10/18 06:21:52;;;;;;;86.60;24.23;;;16.30;99.90;;;;;;5118023;28;20242;-85
2022/10/18 06:24:20;;;;;;;86.47;26.73;;;16.30;99.90;;;;;;5118168;28;20249;-85
2022/10/18 06:26:46;;;;;;;87.60;27.57;;;16.30;99.90;;;;;;5118844;28;20404;-85
2022/10/18 06:29:12;;;;;;;84.80;23.37;;;16.20;99.90;;;;;;5118740;28;20950;-85
2022/10/18 06:31:38;;;;;;;86.80;24.47;;;16.30;99.90;;;;;;5101731;28;20405;-85
2022/10/18 06:34:04;;;;;;;84.13;25.50;;;16.30;99.90;;;;;;5119700;28;20535;-84
2022/10/18 06:36:30;;;;;;;85.47;24.97;;;16.30;99.90;;;;;;5119143;28;20871;-85
2022/10/18 06:38:56;;;;;;;82.97;22.53;;;16.30;99.90;;;;;;5119268;28;20186;-85
2022/10/18 06:41:22;;;;;;;81.47;23.20;;;16.30;99.90;;;;;;5118225;28;20525;-85
2022/10/18 06:43:49;;;;;;;80.77;21.43;;;16.30;99.90;;;;;;5099480;28;20484;-85
2022/10/18 06:46:15;;;;;;;86.40;25.40;;;16.40;99.90;;;;;;5117605;28;20170;-86
2022/10/18 06:48:40;;;;;;;84.93;24.53;;;16.40;99.90;;;;;;5098425;28;20499;-86
2022/10/18 06:51:07;;;;;;;82.50;24.80;;;16.40;99.90;;;;;;5117297;28;20546;-85
2022/10/18 06:53:36;;;;;;;83.57;23.10;;;16.40;99.90;;;;;;5098917;28;20195;-85
2022/10/18 06:56:05;;;;;;;83.60;25.47;;;16.40;99.90;;;;;;5117843;28;20389;-85
2022/10/18 06:58:31;;;;;;;89.43;23.60;;;16.50;99.90;;;;;;5117463;28;20430;-85
2022/10/18 07:00:57;;;;;;;82.30;23.30;;;16.50;99.90;;;;;;5116697;28;20430;-86
2022/10/18 07:03:23;;;;;;;81.70;23.23;;;16.40;99.90;;;;;;5098852;28;20404;-85
2022/10/18 07:05:49;;;;;;;82.83;23.87;;;16.50;99.90;;;;;;5117423;28;20165;-85
2022/10/18 07:08:16;;;;;;;81.87;23.57;;;16.50;99.90;;;;;;5099328;28;20196;-85
2022/10/18 07:10:42;;;;;;;81.50;22.80;;;16.50;99.90;;;;;;5099379;28;20910;-85
2022/10/18 07:13:07;;;;;;;82.37;23.60;;;16.50;99.90;;;;;;5099372;28;20451;-85
2022/10/18 07:15:37;;;;;;;81.00;22.20;;;16.50;99.90;;;;;;5118113;28;20420;-86
2022/10/18 07:18:03;;;;;;;79.50;23.27;;;16.50;99.90;;;;;;5100127;28;20171;-86
2022/10/18 07:20:28;;;;;;;80.53;22.60;;;16.50;99.90;;;;;;5100562;28;20404;-86
2022/10/18 07:22:57;;;;;;;79.17;19.60;;;16.50;99.90;;;;;;5118732;28;20404;-84
2022/10/18 07:25:23;;;;;;;81.13;21.30;;;16.60;99.90;;;;;;5117980;28;20163;-85
2022/10/18 07:27:49;;;;;;;80.67;22.23;;;16.60;99.90;;;;;;5118338;28;20418;-85
2022/10/18 07:30:14;;;;;;;82.03;20.20;;;16.60;99.90;;;;;;5117820;28;20219;-85
2022/10/18 07:32:40;;;;;;;86.90;21.00;;;16.60;99.90;;;;;;5118067;28;20299;-86
2022/10/18 07:35:06;;;;;;;80.33;21.30;;;16.60;99.90;;;;;;5118348;28;20161;-85
2022/10/18 07:37:32;;;;;;;80.30;21.00;;;16.60;99.90;;;;;;5118532;28;20164;-85
2022/10/18 07:39:58;;;;;;;80.93;20.93;;;16.60;99.90;;;;;;5118443;28;20954;-85
2022/10/18 07:42:23;;;;;;;79.47;19.83;;;16.60;99.90;;;;;;5099962;28;20169;-86
2022/10/18 07:44:49;;;;;;;79.60;20.30;;;16.60;99.90;;;;;;5117953;28;20143;-86
2022/10/18 07:47:15;;;;;;;82.60;20.43;;;16.60;99.90;;;;;;5099873;28;20574;-86
2022/10/18 07:49:41;;;;;;;77.70;20.63;;;16.70;99.90;;;;;;5121198;28;20184;-86
2022/10/18 07:52:06;;;;;;;82.80;21.60;;;16.70;99.90;;;;;;5122037;28;20606;-85
2022/10/18 07:54:32;;;;;;;81.67;21.00;;;16.70;99.90;;;;;;5122930;28;20194;-86
2022/10/18 07:56:57;;;;;;;82.70;20.97;;;16.70;99.90;;;;;;5123760;28;20265;-85
2022/10/18 07:59:23;;;;;;;82.50;21.93;;;16.70;99.90;;;;;;5123554;28;20525;-85
2022/10/18 08:01:49;;;;;;;81.83;19.57;;;16.80;99.90;;;;;;5124084;28;20158;-86
2022/10/18 08:04:15;;;;;;;85.30;22.07;;;16.80;99.90;;;;;;5123313;28;20402;-85
2022/10/18 08:06:40;;;;;;;84.73;20.33;;;16.90;99.90;;;;;;5122973;28;20165;-85
2022/10/18 08:09:06;;;;;;;88.60;22.53;;;16.90;99.90;;;;;;5122645;28;20204;-86
2022/10/18 08:11:32;;;;;;;85.90;21.83;;;17.00;99.90;;;;;;5103853;28;20256;-86
2022/10/18 08:13:58;;;;;;;86.37;20.43;;;16.90;99.90;;;;;;5122603;28;20577;-85
2022/10/18 08:16:28;;;;;;;92.70;26.20;;;16.90;99.90;;;;;;5104456;28;20407;-85
2022/10/18 08:18:56;;;;;;;91.67;25.00;;;16.80;99.90;;;;;;5103811;28;20183;-85
2022/10/18 08:21:22;;;;;;;91.10;24.57;;;16.80;99.90;;;;;;5122842;28;20925;-85
2022/10/18 08:23:48;;;;;;;98.50;25.47;;;16.70;99.90;;;;;;5122752;28;20411;-86
2022/10/18 08:26:17;;;;;;;92.87;25.37;;;16.70;99.90;;;;;;5122182;28;20670;-85
2022/10/18 08:28:46;;;;;;;94.27;23.27;;;16.80;99.90;;;;;;5122532;28;20419;-86
2022/10/18 08:31:16;;;;;;;91.77;24.40;;;16.80;99.90;;;;;;5122295;28;20792;-85
2022/10/18 08:33:42;;;;;;;111.10;26.67;;;16.80;99.90;;;;;;5104897;28;20454;-86
2022/10/18 08:36:10;;;;;;;99.33;26.00;;;16.80;99.90;;;;;;5123728;28;20382;-86
2022/10/18 08:38:40;;;;;;;93.50;25.40;;;16.80;99.90;;;;;;5122764;28;20416;-85
2022/10/18 08:41:24;;;;;;;97.63;29.40;;;16.80;99.90;;;;;;5119481;28;20396;-85
2022/10/18 08:44:20;;;;;;;94.57;24.03;;;16.80;99.90;;;;;;5118679;28;20380;-85
2022/10/18 08:46:54;;;;;;;99.47;25.80;;;16.90;99.90;;;;;;5118928;28;20410;-85
2022/10/18 08:49:43;;;;;;;96.37;25.50;;;16.90;99.90;;;;;;5118995;28;20791;-85
2022/10/18 08:52:38;;;;;;;97.70;25.63;;;17.00;99.90;;;;;;5117692;28;20721;-85
2022/10/18 08:55:10;;;;;;;94.70;22.47;;;17.00;99.90;;;;;;5097172;28;20419;-85
2022/10/18 08:57:36;;;;;;;89.33;25.20;;;17.00;99.90;;;;;;5099433;28;20393;-85
2022/10/18 09:00:24;;;;;;;95.17;23.77;;;16.90;99.90;;;;;;5117047;28;20918;-86
2022/10/18 09:03:32;;;;;;;94.00;27.40;;;16.90;99.90;;;;;;5118458;28;20143;-86
2022/10/18 09:06:23;;;;;;;95.30;25.80;;;16.80;99.90;;;;;;5016754;28;20415;-85
2022/10/18 09:09:01;;;;;;;97.30;23.83;;;16.80;99.90;;;;;;5111127;28;20796;-85
2022/10/18 09:11:59;;;;;;;98.17;26.17;;;16.80;99.90;;;;;;5103509;28;20410;-86
2022/10/18 09:14:34;;;;;;;108.67;29.23;;;16.90;99.90;;;;;;5048211;28;20453;-86
2022/10/18 09:17:18;;;;;;;100.70;27.03;;;16.90;99.90;;;;;;5121137;28;20415;-86
2022/10/18 09:20:02;;;;;;;117.37;30.80;;;16.90;99.90;;;;;;5119722;28;20896;-86
2022/10/18 09:22:39;;;;;;;118.90;31.37;;;16.90;99.90;;;;;;5120731;28;20391;-86
2022/10/18 09:25:22;;;;;;;125.43;32.50;;;16.90;99.90;;;;;;5120335;28;20422;-86
2022/10/18 09:28:00;;;;;;;141.37;35.40;;;16.90;99.90;;;;;;5101705;28;20404;-86
2022/10/18 09:30:55;;;;;;;142.23;38.23;;;16.90;99.90;;;;;;5102571;28;20414;-86
2022/10/18 09:33:31;;;;;;;139.80;37.70;;;16.90;99.90;;;;;;5082639;28;20977;-85
2022/10/18 09:36:00;;;;;;;152.33;38.47;;;17.00;99.90;;;;;;5119079;28;20388;-85
2022/10/18 09:38:42;;;;;;;131.40;36.00;;;17.00;99.90;;;;;;5118378;28;20946;-86
2022/10/18 09:41:32;;;;;;;145.17;39.20;;;17.10;99.90;;;;;;5118112;28;20369;-85
2022/10/18 09:44:05;;;;;;;135.40;37.13;;;17.10;99.90;;;;;;5117757;28;20393;-86
2022/10/18 09:46:39;;;;;;;138.93;35.83;;;17.20;99.90;;;;;;5098752;28;20414;-86
2022/10/18 09:49:22;;;;;;;125.17;36.00;;;17.30;99.90;;;;;;5100066;28;20460;-85
2022/10/18 09:51:50;;;;;;;127.03;36.70;;;17.20;99.90;;;;;;5118596;28;20396;-86
2022/10/18 09:54:33;;;;;;;127.00;35.77;;;17.30;99.90;;;;;;5100103;28;20447;-85
2022/10/18 09:57:17;;;;;;;123.00;32.43;;;17.20;99.90;;;;;;5100157;28;20421;-85
2022/10/18 09:59:46;;;;;;;138.77;34.77;;;17.40;99.90;;;;;;5100190;28;20428;-85
2022/10/18 10:02:21;;;;;;;133.20;36.30;;;17.40;99.90;;;;;;5100100;28;20412;-85
2022/10/18 10:04:47;;;;;;;125.80;34.07;;;17.40;99.90;;;;;;5100113;28;20413;-86
2022/10/18 10:07:18;;;;;;;128.73;34.13;;;17.40;99.90;;;;;;5118014;28;20425;-85
2022/10/18 10:10:00;;;;;;;120.90;33.93;;;17.40;99.90;;;;;;5117569;28;20427;-86
2022/10/18 10:12:37;;;;;;;128.93;34.90;;;17.40;99.90;;;;;;5117614;28;20397;-86
2022/10/18 10:15:24;;;;;;;118.07;34.90;;;17.50;99.90;;;;;;5117793;28;20435;-85
2022/10/18 10:17:59;;;;;;;128.97;34.73;;;17.50;99.90;;;;;;5100248;28;20440;-85
2022/10/18 10:20:56;;;;;;;127.47;34.13;;;17.50;99.90;;;;;;5118385;28;20389;-85
2022/10/18 10:23:29;;;;;;;125.13;32.57;;;17.50;99.90;;;;;;5117993;28;20740;-85
2022/10/18 10:25:58;;;;;;;120.83;33.60;;;17.40;99.90;;;;;;5099895;28;20397;-85
2022/10/18 10:28:32;;;;;;;117.23;33.03;;;17.40;99.90;;;;;;5117995;28;20432;-84
2022/10/18 10:31:16;;;;;;;121.13;32.87;;;17.50;99.90;;;;;;5118314;28;20400;-85
2022/10/18 10:33:46;;;;;;;116.87;32.07;;;17.60;99.90;;;;;;5117986;28;20573;-85
2022/10/18 10:36:20;;;;;;;113.13;31.00;;;17.60;99.90;;;;;;5100291;28;20400;-85
2022/10/18 10:39:05;;;;;;;109.70;29.50;;;17.80;99.90;;;;;;5099112;28;20424;-86
2022/10/18 10:41:31;;;;;;;110.77;32.30;;;17.80;99.90;;;;;;5117935;28;20424;-84
2022/10/18 10:43:57;;;;;;;111.60;30.43;;;17.70;99.90;;;;;;5100125;28;20415;-85
2022/10/18 10:46:32;;;;;;;107.67;28.97;;;17.80;99.90;;;;;;5117873;28;20409;-85
2022/10/18 10:48:59;;;;;;;110.03;31.10;;;17.70;99.90;;;;;;5099295;28;20435;-85
2022/10/18 10:51:33;;;;;;;115.80;30.80;;;17.80;99.90;;;;;;5118070;28;20413;-85
2022/10/18 10:54:10;;;;;;;108.27;31.53;;;17.80;99.90;;;;;;5117232;28;20840;-85
2022/10/18 10:56:48;;;;;;;119.00;32.00;;;17.90;99.90;;;;;;5118408;28;20388;-85
2022/10/18 10:59:18;;;;;;;110.47;31.37;;;17.90;99.90;;;;;;5117818;28;20423;-85
2022/10/18 11:01:46;;;;;;;121.30;34.23;;;18.00;99.90;;;;;;5118603;28;20470;-86
2022/10/18 11:04:43;;;;;;;115.80;38.07;;;18.10;99.90;;;;;;5101528;28;20436;-86
2022/10/18 11:07:08;;;;;;;120.80;33.80;;;18.20;99.90;;;;;;5079449;28;20416;-85
2022/10/18 11:10:00;;;;;;;116.97;32.90;;;18.20;99.90;;;;;;5099580;28;20413;-85
2022/10/18 11:12:32;;;;;;;114.03;32.80;;;18.20;99.90;;;;;;5116959;28;20622;-85
2022/10/18 11:15:02;;;;;;;110.53;33.67;;;18.20;99.90;;;;;;5184144;22;20485;-87
2022/10/18 11:17:38;;;;;;;108.37;30.90;;;18.30;99.90;;;;;;5093991;28;20765;-88
2022/10/18 11:20:11;;;;;;;113.17;30.57;;;18.40;99.90;;;;;;5095747;28;20423;-87
2022/10/18 11:22:54;;;;;;;114.30;31.70;;;18.50;99.90;;;;;;5098313;28;20801;-87
2022/10/18 11:25:30;;;;;;;106.93;28.27;;;18.60;99.90;;;;;;5099387;28;20392;-88
2022/10/18 11:28:35;;;;;;;107.50;27.50;;;18.60;99.90;;;;;;5102385;28;20382;-88
2022/10/18 11:31:22;;;;;;;105.83;26.97;;;18.70;99.90;;;;;;5071477;28;20404;-88
2022/10/18 11:34:00;;;;;;;107.77;29.20;;;18.90;99.90;;;;;;5085257;28;20432;-88
2022/10/18 11:36:35;;;;;;;105.13;26.40;;;19.00;99.90;;;;;;5103641;28;20462;-87
2022/10/18 11:39:13;;;;;;;108.60;25.70;;;19.20;99.90;;;;;;5104446;28;20513;-87
2022/10/18 11:42:19;;;;;;;107.40;25.87;;;19.40;99.90;;;;;;5102500;28;20381;-88
2022/10/18 11:44:59;;;;;;;103.87;24.80;;;19.30;99.90;;;;;;5073586;28;20405;-88
2022/10/18 11:48:11;;;;;;;105.07;27.83;;;19.10;99.90;;;;;;5102148;28;20385;-88
2022/10/18 11:50:57;;;;;;;117.80;28.77;;;19.30;99.90;;;;;;5020624;28;20764;-88
2022/10/18 11:53:22;;;;;;;106.27;27.73;;;19.60;99.90;;;;;;5084693;28;20508;-88
2022/10/18 11:56:11;;;;;;;108.83;28.10;;;19.90;99.90;;;;;;5082343;28;20448;-88
2022/10/18 11:58:45;;;;;;;108.20;28.10;;;20.00;99.90;;;;;;5098439;28;20175;-88
2022/10/18 12:01:28;;;;;;;112.00;28.37;;;20.10;99.90;;;;;;5097582;28;20409;-88
2022/10/18 12:03:58;;;;;;;110.70;28.47;;;20.10;99.90;;;;;;5097247;28;20442;-87
2022/10/18 12:06:29;;;;;;;108.17;28.33;;;19.70;99.90;;;;;;5098777;28;20390;-88
2022/10/18 12:09:01;;;;;;;119.20;29.87;;;19.40;99.90;;;;;;5096703;28;20424;-88
2022/10/18 12:11:35;;;;;;;119.80;31.17;;;19.10;99.90;;;;;;5094920;28;20892;-86
2022/10/18 12:14:17;;;;;;;122.90;32.53;;;19.10;99.90;;;;;;5078127;28;20469;-88
2022/10/18 12:16:44;;;;;;;113.97;31.20;;;19.10;99.90;;;;;;5096024;28;20481;-87
2022/10/18 12:19:21;;;;;;;116.73;29.70;;;19.00;99.90;;;;;;5077503;28;20425;-88
2022/10/18 12:21:47;;;;;;;114.53;28.97;;;18.90;99.90;;;;;;5095958;28;20380;-88
2022/10/18 12:24:31;;;;;;;109.07;28.60;;;18.80;99.90;;;;;;5077633;28;20499;-87
2022/10/18 12:27:00;;;;;;;108.07;28.47;;;18.90;99.90;;;;;;5096253;28;20156;-87
2022/10/18 12:29:30;;;;;;;111.20;28.83;;;19.00;99.90;;;;;;5096309;28;20451;-87
2022/10/18 12:32:06;;;;;;;111.17;29.90;;;19.00;99.90;;;;;;5096213;28;20393;-87
2022/10/18 12:34:55;;;;;;;116.67;31.07;;;19.10;99.90;;;;;;5094043;28;20441;-87
2022/10/18 12:37:37;;;;;;;112.40;29.20;;;19.40;99.90;;;;;;5096448;28;20465;-87
2022/10/18 12:40:16;;;;;;;109.77;27.97;;;19.30;99.90;;;;;;5096071;28;20788;-87
2022/10/18 12:42:47;;;;;;;108.17;26.80;;;19.40;99.90;;;;;;5096135;28;20385;-87
2022/10/18 12:45:25;;;;;;;109.20;27.40;;;19.40;99.90;;;;;;5094901;28;20397;-87
2022/10/18 12:48:03;;;;;;;104.90;24.20;;;19.40;99.90;;;;;;5079038;28;20401;-87
2022/10/18 12:50:36;;;;;;;97.93;21.17;;;19.40;99.90;;;;;;5094969;28;20749;-87
2022/10/18 12:53:09;;;;;;;107.30;24.80;;;19.50;99.90;;;;;;5096706;28;20528;-87
2022/10/18 12:55:37;;;;;;;103.37;26.00;;;19.50;99.90;;;;;;5097230;28;20378;-87
2022/10/18 12:58:30;;;;;;;107.47;25.40;;;19.50;99.90;;;;;;5098294;28;20406;-87
2022/10/18 13:01:05;;;;;;;106.47;26.20;;;19.60;99.90;;;;;;5097140;28;20397;-87
2022/10/18 13:03:52;;;;;;;117.10;31.63;;;19.70;99.90;;;;;;5080443;28;20396;-87
2022/10/18 13:06:19;;;;;;;113.43;29.27;;;19.80;99.90;;;;;;5098495;28;20433;-89
2022/10/18 13:08:46;;;;;;;110.87;28.13;;;19.90;99.90;;;;;;5081914;28;20429;-88
2022/10/18 13:11:41;;;;;;;113.37;27.90;;;19.70;99.90;;;;;;5080807;28;20429;-88
2022/10/18 13:14:27;;;;;;;117.40;29.77;;;19.60;99.90;;;;;;5081206;28;20458;-88
2022/10/18 13:17:29;;;;;;;118.93;30.17;;;19.50;99.90;;;;;;5100787;28;20454;-88
2022/10/18 13:20:28;;;;;;;121.80;33.00;;;19.20;99.90;;;;;;5063247;28;20436;-88
2022/10/18 13:23:22;;;;;;;117.10;29.93;;;19.00;99.90;;;;;;5082179;28;20402;-88
2022/10/18 13:25:57;;;;;;;115.00;32.30;;;18.80;99.90;;;;;;5081696;28;20463;-88
2022/10/18 13:28:44;;;;;;;108.43;27.50;;;18.70;99.90;;;;;;5080614;28;20425;-88
2022/10/18 13:31:19;;;;;;;111.73;27.83;;;18.80;99.90;;;;;;5100141;28;20714;-88
2022/10/18 13:33:45;;;;;;;109.83;26.40;;;18.80;99.90;;;;;;5082226;28;20478;-88
2022/10/18 13:36:16;;;;;;;107.50;27.53;;;18.90;99.90;;;;;;5084941;28;20410;-88